Time;durP1;ratioP1;P1;durP2;ratioP2;P2;SDS_P1;SDS_P2;PMS_P1;PMS_P2;Temp;Humidity;BMP_temperature;BMP_pressure;BME280_temperature;BME280_humidity;BME280_pressure;Samples;Min_cycle;Max_cycle;Signal;HPM_P1;HPM_P2
2021/01/20 00:01:00;;;;;;;;;;;;;;;13.56;40.43;99321.09;4387167;32;19950;-59
2021/01/20 00:03:28;;;;;;;;;;;;;;;13.56;40.42;99321.94;4395669;32;19943;-59
2021/01/20 00:05:54;;;;;;;;;;;;;;;13.55;40.43;99325.41;4402692;32;19998;-59
2021/01/20 00:08:19;;;;;;;;;;;;;;;13.55;40.40;99320.19;4401767;32;19978;-59
2021/01/20 00:10:46;;;;;;;;;;;;;;;13.56;40.40;99323.69;4401465;32;19990;-58
2021/01/20 00:13:12;;;;;;;;;;;;;;;13.57;40.40;99317.63;4401690;32;20358;-59
2021/01/20 00:15:38;;;;;;;;;;;;;;;13.55;40.39;99321.94;4387881;32;19954;-59
2021/01/20 00:18:04;;;;;;;;;;;;;;;13.53;40.44;99313.16;4386146;32;19959;-59
2021/01/20 00:20:30;;;;;;;;;;;;;;;13.52;40.42;99307.03;4395314;32;19969;-58
2021/01/20 00:22:56;;;;;;;;;;;;;;;13.54;40.41;99314.94;4402166;32;19965;-59
2021/01/20 00:25:22;;;;;;;;;;;;;;;13.54;40.39;99314.94;4401397;32;19988;-59
2021/01/20 00:27:48;;;;;;;;;;;;;;;13.53;40.40;99302.72;4385602;32;20296;-58
2021/01/20 00:30:13;;;;;;;;;;;;;;;13.52;40.40;99298.28;4370377;32;19939;-59
2021/01/20 00:32:39;;;;;;;;;;;;;;;13.54;40.39;99299.25;4380949;32;20397;-57
2021/01/20 00:35:05;;;;;;;;;;;;;;;13.52;40.38;99286.13;4392546;32;20013;-59
2021/01/20 00:37:31;;;;;;;;;;;;;;;13.51;40.40;99289.56;4402248;32;19965;-58
2021/01/20 00:39:57;;;;;;;;;;;;;;;13.52;40.40;99295.69;4401540;32;19946;-58
2021/01/20 00:42:23;;;;;;;;;;;;;;;13.52;40.39;99286.13;4391240;32;20042;-59
2021/01/20 00:44:49;;;;;;;;;;;;;;;13.51;40.39;99288.69;4371963;32;19955;-59
2021/01/20 00:47:15;;;;;;;;;;;;;;;13.51;40.39;99299.16;4372534;32;20033;-59
2021/01/20 00:49:41;;;;;;;;;;;;;;;13.51;40.40;99288.69;4370151;32;19974;-59
2021/01/20 00:52:07;;;;;;;;;;;;;;;13.52;40.38;99290.44;4376621;32;20033;-58
2021/01/20 00:54:33;;;;;;;;;;;;;;;13.49;40.38;99281.69;4401500;32;19955;-59
2021/01/20 00:56:59;;;;;;;;;;;;;;;13.50;40.38;99277.34;4398177;32;19963;-59
2021/01/20 00:59:24;;;;;;;;;;;;;;;13.49;40.40;99270.34;4377043;32;19978;-59
2021/01/20 01:01:50;;;;;;;;;;;;;;;13.50;40.37;99269.50;4373405;32;20370;-59
2021/01/20 01:04:16;;;;;;;;;;;;;;;13.49;40.36;99271.22;4386331;32;19978;-59
2021/01/20 01:06:42;;;;;;;;;;;;;;;13.49;40.38;99263.38;4381662;32;19942;-58
2021/01/20 01:09:08;;;;;;;;;;;;;;;13.49;40.34;99262.50;4385556;32;19974;-58
2021/01/20 01:11:34;;;;;;;;;;;;;;;13.48;40.36;99264.22;4385801;32;20399;-59
2021/01/20 01:14:00;;;;;;;;;;;;;;;13.49;40.35;99260.75;4374038;32;19988;-59
2021/01/20 01:16:26;;;;;;;;;;;;;;;13.49;40.31;99259.91;4372313;32;19977;-58
2021/01/20 01:18:52;;;;;;;;;;;;;;;13.50;40.31;99256.44;4385346;32;20257;-59
2021/01/20 01:21:18;;;;;;;;;;;;;;;13.48;40.34;99259.00;4386594;32;19951;-59
2021/01/20 01:23:43;;;;;;;;;;;;;;;13.51;40.30;99246.84;4375000;32;19952;-59
2021/01/20 01:26:09;;;;;;;;;;;;;;;13.48;40.30;99248.53;4371175;32;20388;-59
2021/01/20 01:28:35;;;;;;;;;;;;;;;13.48;40.28;99242.44;4380945;32;19954;-59
2021/01/20 01:31:01;;;;;;;;;;;;;;;13.48;40.30;99242.44;4387083;32;20290;-58
2021/01/20 01:33:27;;;;;;;;;;;;;;;13.49;40.27;99239.84;4376631;32;19943;-58
2021/01/20 01:35:53;;;;;;;;;;;;;;;13.48;40.28;99253.75;4374185;32;19955;-59
2021/01/20 01:38:19;;;;;;;;;;;;;;;13.48;40.29;99245.06;4381836;32;19939;-59
2021/01/20 01:40:45;;;;;;;;;;;;;;;13.48;40.29;99255.50;4388188;32;19954;-59
2021/01/20 01:43:10;;;;;;;;;;;;;;;13.46;40.30;99245.00;4388734;32;19983;-59
2021/01/20 01:45:36;;;;;;;;;;;;;;;13.47;40.29;99236.31;4398999;32;19965;-59
2021/01/20 01:48:02;;;;;;;;;;;;;;;13.48;40.28;99230.22;4404139;32;19962;-58
2021/01/20 01:50:28;;;;;;;;;;;;;;;13.45;40.31;99227.53;4403563;32;19958;-59
2021/01/20 01:52:54;;;;;;;;;;;;;;;13.46;40.30;99218.84;4401339;32;19970;-58
2021/01/20 01:55:20;;;;;;;;;;;;;;;13.46;40.30;99208.37;4374446;32;20619;-59
2021/01/20 01:57:46;;;;;;;;;;;;;;;13.47;40.26;99199.69;4375953;32;19998;-59
2021/01/20 02:00:12;;;;;;;;;;;;;;;13.46;40.29;99202.28;4388243;32;19947;-59
2021/01/20 02:02:37;;;;;;;;;;;;;;;13.46;40.28;99208.37;4388380;32;20023;-59
2021/01/20 02:05:03;;;;;;;;;;;;;;;13.46;40.25;99208.37;4376005;32;20214;-57
2021/01/20 02:07:29;;;;;;;;;;;;;;;13.47;40.28;99204.06;4373753;32;19951;-58
2021/01/20 02:09:55;;;;;;;;;;;;;;;13.46;40.28;99212.75;4387715;32;20054;-59
2021/01/20 02:12:21;;;;;;;;;;;;;;;13.45;40.30;99211.84;4388189;32;19985;-59
2021/01/20 02:14:47;;;;;;;;;;;;;;;13.46;40.25;99204.91;4390221;32;19958;-59
2021/01/20 02:17:13;;;;;;;;;;;;;;;13.45;40.30;99203.09;4403563;32;20015;-59
2021/01/20 02:19:38;;;;;;;;;;;;;;;13.45;40.27;99205.72;4402701;32;20335;-59
2021/01/20 02:22:04;;;;;;;;;;;;;;;13.45;40.29;99208.34;4404226;32;19958;-59
2021/01/20 02:24:30;;;;;;;;;;;;;;;13.46;40.25;99211.00;4384624;32;19963;-59
2021/01/20 02:26:56;;;;;;;;;;;;;;;13.45;40.26;99213.56;4373413;32;19981;-59
2021/01/20 02:29:22;;;;;;;;;;;;;;;13.45;40.26;99205.72;4380823;32;21031;-59
2021/01/20 02:31:48;;;;;;;;;;;;;;;13.44;40.26;99198.72;4388022;32;19958;-61
2021/01/20 02:34:14;;;;;;;;;;;;;;;13.42;40.28;99201.31;4401298;32;19946;-61
2021/01/20 02:36:40;;;;;;;;;;;;;;;13.42;40.28;99196.06;4403564;32;19958;-62
2021/01/20 02:39:06;;;;;;;;;;;;;;;13.43;40.27;99199.53;4396470;32;19990;-61
2021/01/20 02:41:32;;;;;;;;;;;;;;;13.44;40.23;99209.19;4359953;32;19986;-62
2021/01/20 02:43:57;;;;;;;;;;;;;;;13.43;40.25;99197.84;4376876;32;19997;-61
2021/01/20 02:46:23;;;;;;;;;;;;;;;13.43;40.23;99205.69;4389938;32;19974;-61
2021/01/20 02:48:49;;;;;;;;;;;;;;;13.43;40.22;99196.94;4402575;32;20008;-61
2021/01/20 02:51:15;;;;;;;;;;;;;;;13.42;40.23;99201.31;4402764;32;19988;-59
2021/01/20 02:53:41;;;;;;;;;;;;;;;13.42;40.23;99201.31;4401573;32;20002;-62
2021/01/20 02:56:07;;;;;;;;;;;;;;;13.42;40.24;99193.44;4375223;32;20011;-61
2021/01/20 02:58:35;;;;;;;;;;;;;;;13.41;40.23;99190.78;4373440;32;20011;-61
2021/01/20 03:01:01;;;;;;;;;;;;;;;13.41;40.24;99191.69;4387947;32;20016;-61
2021/01/20 03:03:27;;;;;;;;;;;;;;;13.39;40.25;99190.75;4376742;32;19970;-61
2021/01/20 03:05:53;;;;;;;;;;;;;;;13.41;40.21;99189.06;4403056;32;19966;-62
2021/01/20 03:08:19;;;;;;;;;;;;;;;13.41;40.21;99191.69;4402868;32;20007;-61
2021/01/20 03:10:44;;;;;;;;;;;;;;;13.41;40.20;99181.22;4378470;32;20284;-62
2021/01/20 03:13:10;;;;;;;;;;;;;;;13.41;40.19;99181.22;4372982;32;19940;-61
2021/01/20 03:15:36;;;;;;;;;;;;;;;13.42;40.17;99188.22;4382098;32;19966;-62
2021/01/20 03:18:02;;;;;;;;;;;;;;;13.40;40.17;99186.41;4378788;32;20013;-62
2021/01/20 03:20:28;;;;;;;;;;;;;;;13.40;40.18;99191.66;4382246;32;20009;-61
2021/01/20 03:22:54;;;;;;;;;;;;;;;13.40;40.14;99192.53;4388284;32;19976;-61
2021/01/20 03:25:20;;;;;;;;;;;;;;;13.40;40.15;99192.53;4364764;32;20387;-61
2021/01/20 03:27:46;;;;;;;;;;;;;;;13.40;40.17;99186.41;4372762;32;19958;-61
2021/01/20 03:30:12;;;;;;;;;;;;;;;13.40;40.16;99181.19;4378484;32;19970;-61
2021/01/20 03:32:38;;;;;;;;;;;;;;;13.39;40.18;99185.50;4387775;32;19955;-62
2021/01/20 03:35:03;;;;;;;;;;;;;;;13.39;40.17;99175.06;4386816;32;20010;-61
2021/01/20 03:37:29;;;;;;;;;;;;;;;13.39;40.17;99175.06;4387829;32;20017;-61
2021/01/20 03:39:55;;;;;;;;;;;;;;;13.38;40.16;99173.28;4387755;32;20472;-61
2021/01/20 03:42:21;;;;;;;;;;;;;;;13.39;40.15;99168.97;4358895;32;19955;-61
2021/01/20 03:44:47;;;;;;;;;;;;;;;13.37;40.14;99171.53;4375571;32;19966;-62
2021/01/20 03:47:13;;;;;;;;;;;;;;;13.37;40.14;99168.91;4387431;32;19982;-61
2021/01/20 03:49:39;;;;;;;;;;;;;;;13.37;40.15;99168.06;4396866;32;20010;-62
2021/01/20 03:52:05;;;;;;;;;;;;;;;13.36;40.14;99167.16;4384268;32;20570;-61
2021/01/20 03:54:30;;;;;;;;;;;;;;;13.37;40.12;99171.53;4402507;32;19981;-61
2021/01/20 03:56:56;;;;;;;;;;;;;;;13.37;40.12;99161.06;4402460;32;20018;-61
2021/01/20 03:59:22;;;;;;;;;;;;;;;13.37;40.09;99160.19;4401155;32;20385;-61
2021/01/20 04:01:48;;;;;;;;;;;;;;;13.37;40.12;99166.31;4377162;32;19970;-62
2021/01/20 04:04:14;;;;;;;;;;;;;;;13.37;40.11;99162.81;4371268;32;20371;-60
2021/01/20 04:06:40;;;;;;;;;;;;;;;13.35;40.12;99160.16;4385179;32;19943;-61
2021/01/20 04:09:06;;;;;;;;;;;;;;;13.36;40.12;99154.06;4386463;32;19951;-61
2021/01/20 04:11:32;;;;;;;;;;;;;;;13.36;40.14;99159.31;4384500;32;20296;-61
2021/01/20 04:13:58;;;;;;;;;;;;;;;13.34;40.12;99161.00;4398977;32;20299;-61
2021/01/20 04:16:24;;;;;;;;;;;;;;;13.34;40.14;99161.00;4364327;32;19959;-61
2021/01/20 04:18:50;;;;;;;;;;;;;;;13.34;40.14;99153.16;4371398;32;20005;-61
2021/01/20 04:21:15;;;;;;;;;;;;;;;13.33;40.13;99148.78;4380598;32;19990;-60
2021/01/20 04:23:41;;;;;;;;;;;;;;;13.33;40.15;99148.78;4387096;32;19977;-61
2021/01/20 04:26:07;;;;;;;;;;;;;;;13.33;40.12;99143.56;4365156;32;20331;-61
2021/01/20 04:28:33;;;;;;;;;;;;;;;13.33;40.14;99149.69;4371367;32;19955;-61
2021/01/20 04:30:59;;;;;;;;;;;;;;;13.33;40.15;99143.56;4378956;32;19959;-61
2021/01/20 04:33:25;;;;;;;;;;;;;;;13.35;40.09;99147.09;4386413;32;19958;-61
2021/01/20 04:35:51;;;;;;;;;;;;;;;13.34;40.08;99140.09;4381452;32;19959;-61
2021/01/20 04:38:16;;;;;;;;;;;;;;;13.34;40.07;99141.00;4371380;32;20559;-61
2021/01/20 04:40:42;;;;;;;;;;;;;;;13.33;40.09;99138.31;4374873;32;19951;-62
2021/01/20 04:43:08;;;;;;;;;;;;;;;13.33;40.07;99130.47;4393148;32;19961;-61
2021/01/20 04:45:34;;;;;;;;;;;;;;;13.32;40.12;99131.34;4401865;32;19989;-61
2021/01/20 04:48:00;;;;;;;;;;;;;;;13.32;40.11;99131.34;4402049;32;19951;-61
2021/01/20 04:50:26;;;;;;;;;;;;;;;13.31;40.10;99119.97;4400046;32;19958;-61
2021/01/20 04:52:52;;;;;;;;;;;;;;;13.33;40.08;99125.25;4375731;32;19946;-61
2021/01/20 04:55:18;;;;;;;;;;;;;;;13.36;40.01;99122.69;4357529;32;20044;-61
2021/01/20 04:57:43;;;;;;;;;;;;;;;13.41;39.99;99120.19;4385863;32;19959;-61
2021/01/20 05:00:09;;;;;;;;;;;;;;;13.45;39.94;99120.31;4398906;32;19952;-62
2021/01/20 05:02:35;;;;;;;;;;;;;;;13.48;39.95;99116.87;4401574;32;20384;-62
2021/01/20 05:05:01;;;;;;;;;;;;;;;13.51;39.91;99126.50;4401482;32;19972;-61
2021/01/20 05:07:27;;;;;;;;;;;;;;;13.54;39.88;99121.38;4381219;32;20313;-61
2021/01/20 05:09:53;;;;;;;;;;;;;;;13.55;39.82;99118.75;4372246;32;19939;-62
2021/01/20 05:12:19;;;;;;;;;;;;;;;13.55;39.80;99112.66;4383377;32;20314;-61
2021/01/20 05:14:45;;;;;;;;;;;;;;;13.55;39.81;99115.28;4390161;32;20043;-61
2021/01/20 05:17:10;;;;;;;;;;;;;;;13.54;39.81;99110.91;4382234;32;19977;-61
2021/01/20 05:19:36;;;;;;;;;;;;;;;13.53;39.85;99107.38;4374141;32;19973;-61
2021/01/20 05:22:04;;;;;;;;;;;;;;;13.53;39.82;99110.00;4382208;32;20373;-61
2021/01/20 05:24:30;;;;;;;;;;;;;;;13.53;39.85;99111.75;4375518;32;19984;-61
2021/01/20 05:26:56;;;;;;;;;;;;;;;13.51;39.85;99105.59;4383658;32;19994;-61
2021/01/20 05:29:22;;;;;;;;;;;;;;;13.49;39.87;99103.81;4383481;32;19955;-62
2021/01/20 05:31:48;;;;;;;;;;;;;;;13.47;39.84;99095.06;4395070;32;20303;-61
2021/01/20 05:34:14;;;;;;;;;;;;;;;13.45;39.87;99107.25;4403454;32;19958;-62
2021/01/20 05:36:39;;;;;;;;;;;;;;;13.44;39.87;99104.59;4380706;32;19959;-61
2021/01/20 05:39:09;;;;;;;;;;;;;;;13.44;39.83;99108.09;4376077;32;20009;-61
2021/01/20 05:41:35;;;;;;;;;;;;;;;13.43;39.87;99114.16;4375879;32;19954;-62
2021/01/20 05:44:00;;;;;;;;;;;;;;;13.42;39.85;99112.38;4389123;32;19997;-61
2021/01/20 05:46:26;;;;;;;;;;;;;;;13.40;39.88;99103.63;4389210;32;19977;-61
2021/01/20 05:48:52;;;;;;;;;;;;;;;13.39;39.93;99108.81;4388806;32;20519;-61
2021/01/20 05:51:18;;;;;;;;;;;;;;;13.38;39.93;99107.91;4390211;32;19955;-61
2021/01/20 05:53:44;;;;;;;;;;;;;;;13.34;39.95;99108.72;4403777;32;19950;-61
2021/01/20 05:56:10;;;;;;;;;;;;;;;13.33;40.01;99106.94;4389923;32;19962;-62
2021/01/20 05:58:36;;;;;;;;;;;;;;;13.34;39.98;99107.00;4381289;32;19955;-61
2021/01/20 06:01:02;;;;;;;;;;;;;;;13.36;39.96;99101.78;4389294;32;19951;-61
2021/01/20 06:03:28;;;;;;;;;;;;;;;13.39;39.89;99093.97;4404104;32;20387;-61
2021/01/20 06:05:54;;;;;;;;;;;;;;;13.45;39.95;99102.00;4398190;32;19943;-62
2021/01/20 06:08:19;;;;;;;;;;;;;;;13.49;39.88;99098.59;4400535;32;19973;-60
2021/01/20 06:10:45;;;;;;;;;;;;;;;13.52;39.83;99089.03;4404857;32;20034;-62
2021/01/20 06:13:11;;;;;;;;;;;;;;;13.53;39.86;99089.06;4388166;32;20327;-61
2021/01/20 06:15:37;;;;;;;;;;;;;;;13.55;39.81;99099.59;4381006;32;19978;-61
2021/01/20 06:18:03;;;;;;;;;;;;;;;13.55;39.78;99086.50;4380146;32;19951;-60
2021/01/20 06:20:29;;;;;;;;;;;;;;;13.54;39.81;99089.97;4388632;32;20298;-61
2021/01/20 06:22:56;;;;;;;;;;;;;;;13.53;39.83;99080.38;4393640;32;19972;-61
2021/01/20 06:25:22;;;;;;;;;;;;;;;13.52;39.84;99081.19;4386608;32;20386;-61
2021/01/20 06:27:48;;;;;;;;;;;;;;;13.49;39.83;99077.66;4384144;32;19955;-61
2021/01/20 06:30:14;;;;;;;;;;;;;;;13.53;39.89;99075.12;4372918;32;19967;-61
2021/01/20 06:32:40;;;;;;;;;;;;;;;13.57;39.68;99074.34;4383847;32;20093;-61
2021/01/20 06:35:05;;;;;;;;;;;;;;;13.58;39.60;99070.87;4387048;32;20032;-61
2021/01/20 06:37:31;;;;;;;;;;;;;;;13.55;39.65;99076.03;4374618;32;19973;-60
2021/01/20 06:39:57;;;;;;;;;;;;;;;13.59;39.56;99077.84;4370111;32;19955;-61
2021/01/20 06:42:23;;;;;;;;;;;;;;;13.60;39.51;99075.28;4384486;32;20037;-61
2021/01/20 06:44:49;;;;;;;;;;;;;;;13.62;39.49;99072.69;4386899;32;20651;-60
2021/01/20 06:47:15;;;;;;;;;;;;;;;13.62;39.50;99063.13;4387246;32;19955;-60
2021/01/20 06:49:41;;;;;;;;;;;;;;;13.61;39.50;99071.81;4370638;32;20004;-61
2021/01/20 06:52:07;;;;;;;;;;;;;;;13.61;39.44;99076.16;4376754;32;19974;-61
2021/01/20 06:54:33;;;;;;;;;;;;;;;13.60;39.46;99063.91;4383855;32;20327;-61
2021/01/20 06:56:59;;;;;;;;;;;;;;;13.61;39.48;99078.75;4386797;32;19955;-61
2021/01/20 06:59:26;;;;;;;;;;;;;;;13.57;39.55;99075.19;4385683;32;19954;-61
2021/01/20 07:01:51;;;;;;;;;;;;;;;13.56;39.58;99073.44;4387002;32;19959;-61
2021/01/20 07:04:18;;;;;;;;;;;;;;;13.56;39.63;99077.81;4385624;32;20489;-61
2021/01/20 07:06:44;;;;;;;;;;;;;;;13.55;39.67;99071.69;4376517;32;19962;-61
2021/01/20 07:09:14;;;;;;;;;;;;;;;13.57;39.79;99069.09;4367471;32;20014;-61
2021/01/20 07:11:39;;;;;;;;;;;;;;;13.56;39.79;99067.34;4371588;32;19959;-59
2021/01/20 07:14:05;;;;;;;;;;;;;;;13.57;39.80;99069.09;4379673;32;19986;-61
2021/01/20 07:16:31;;;;;;;;;;;;;;;13.59;39.84;99072.63;4370900;32;19955;-61
2021/01/20 07:18:57;;;;;;;;;;;;;;;13.60;39.82;99079.63;4385530;32;19955;-61
2021/01/20 07:21:23;;;;;;;;;;;;;;;13.59;39.84;99078.75;4386067;32;20005;-61
2021/01/20 07:23:49;;;;;;;;;;;;;;;13.59;39.83;99070.91;4381718;32;19963;-59
2021/01/20 07:26:15;;;;;;;;;;;;;;;13.57;39.90;99074.34;4371237;32;19963;-61
2021/01/20 07:28:41;;;;;;;;;;;;;;;13.55;39.91;99076.03;4375087;32;19954;-60
2021/01/20 07:31:08;;;;;;;;;;;;;;;13.54;39.92;99071.66;4391590;32;19977;-61
2021/01/20 07:33:34;;;;;;;;;;;;;;;13.54;39.96;99074.28;4388023;32;19955;-61
2021/01/20 07:36:00;;;;;;;;;;;;;;;13.52;39.99;99074.25;4371066;32;19955;-61
2021/01/20 07:38:25;;;;;;;;;;;;;;;13.50;39.95;99062.87;4372962;32;20439;-61
2021/01/20 07:40:51;;;;;;;;;;;;;;;13.52;39.95;99061.16;4385148;32;19957;-61
2021/01/20 07:43:18;;;;;;;;;;;;;;;13.49;39.83;99061.97;4385090;32;20296;-61
2021/01/20 07:45:44;;;;;;;;;;;;;;;13.54;39.80;99064.69;4370405;32;19998;-60
2021/01/20 07:48:10;;;;;;;;;;;;;;;13.53;39.81;99051.59;4370507;32;19999;-61
2021/01/20 07:50:36;;;;;;;;;;;;;;;13.50;39.81;99047.19;4385087;32;19959;-61
2021/01/20 07:53:02;;;;;;;;;;;;;;;13.46;39.90;99038.38;4373239;32;19947;-61
2021/01/20 07:55:28;;;;;;;;;;;;;;;13.45;39.90;99033.13;4371793;32;20004;-61
2021/01/20 07:57:56;;;;;;;;;;;;;;;13.48;39.82;99044.53;4371466;32;19993;-61
2021/01/20 08:00:21;;;;;;;;;;;;;;;13.53;39.77;99041.13;4383899;32;19955;-61
2021/01/20 08:02:48;;;;;;;;;;;;;;;13.53;39.79;99046.38;4385343;32;20349;-61
2021/01/20 08:05:14;;;;;;;;;;;;;;;13.49;39.85;99046.28;4388377;32;19973;-60
2021/01/20 08:07:39;;;;;;;;;;;;;;;13.52;39.81;99055.03;4377238;32;20336;-61
2021/01/20 08:10:05;;;;;;;;;;;;;;;13.54;39.79;99053.34;4383496;32;19997;-61
2021/01/20 08:12:31;;;;;;;;;;;;;;;13.49;39.72;99046.28;4386375;32;19963;-61
2021/01/20 08:14:57;;;;;;;;;;;;;;;13.52;39.78;99039.34;4385673;32;20025;-60
2021/01/20 08:17:23;;;;;;;;;;;;;;;13.54;39.80;99042.91;4385327;32;20044;-61
2021/01/20 08:19:49;;;;;;;;;;;;;;;13.55;39.80;99034.19;4385678;32;19963;-61
2021/01/20 08:22:15;;;;;;;;;;;;;;;13.60;39.85;99037.75;4385861;32;20355;-61
2021/01/20 08:24:41;;;;;;;;;;;;;;;13.62;39.82;99036.94;4381303;32;19998;-61
2021/01/20 08:27:07;;;;;;;;;;;;;;;13.65;39.79;99033.53;4369202;32;19990;-61
2021/01/20 08:29:33;;;;;;;;;;;;;;;13.65;39.83;99030.91;4373833;32;19951;-61
2021/01/20 08:32:00;;;;;;;;;;;;;;;13.63;39.81;99028.25;4384289;32;19989;-60
2021/01/20 08:34:25;;;;;;;;;;;;;;;13.62;39.82;99025.59;4381377;32;19980;-61
2021/01/20 08:36:51;;;;;;;;;;;;;;;13.60;39.81;99035.16;4381682;32;19959;-61
2021/01/20 08:39:17;;;;;;;;;;;;;;;13.59;39.84;99036.00;4383536;32;19962;-61
2021/01/20 08:41:43;;;;;;;;;;;;;;;13.60;39.87;99050.84;4376797;32;19996;-61
2021/01/20 08:44:09;;;;;;;;;;;;;;;13.59;39.85;99049.97;4395722;32;19986;-59
2021/01/20 08:46:35;;;;;;;;;;;;;;;13.60;39.83;99048.22;4384967;32;19958;-62
2021/01/20 08:49:01;;;;;;;;;;;;;;;13.59;39.76;99041.22;4393371;32;19962;-61
2021/01/20 08:51:27;;;;;;;;;;;;;;;13.63;39.85;99037.81;4394946;32;19969;-61
2021/01/20 08:53:53;;;;;;;;;;;;;;;13.60;39.77;99038.66;4398534;32;19966;-61
2021/01/20 08:56:19;;;;;;;;;;;;;;;13.59;39.76;99038.63;4394005;32;19950;-60
2021/01/20 08:58:46;;;;;;;;;;;;;;;13.62;39.67;99042.19;4384588;32;20361;-60
2021/01/20 09:01:11;;;;;;;;;;;;;;;13.61;39.66;99029.06;4394934;32;20015;-61
2021/01/20 09:03:37;;;;;;;;;;;;;;;13.61;39.67;99037.81;4399873;32;19962;-61
2021/01/20 09:06:03;;;;;;;;;;;;;;;13.60;39.71;99024.69;4395259;32;20007;-61
2021/01/20 09:08:29;;;;;;;;;;;;;;;13.60;39.72;99032.53;4399471;32;19965;-60
2021/01/20 09:10:55;;;;;;;;;;;;;;;13.58;39.79;99023.78;4393058;32;20346;-61
2021/01/20 09:13:21;;;;;;;;;;;;;;;13.59;39.82;99020.31;4384754;32;19983;-61
2021/01/20 09:15:48;;;;;;;;;;;;;;;13.61;39.74;99013.38;4392561;32;19969;-62
2021/01/20 09:18:14;;;;;;;;;;;;;;;13.60;39.72;99016.84;4399889;32;19959;-61
2021/01/20 09:20:40;;;;;;;;;;;;;;;13.59;39.70;99013.34;4389887;32;20279;-62
2021/01/20 09:23:06;;;;;;;;;;;;;;;13.59;39.78;99018.59;4370381;32;19998;-61
2021/01/20 09:25:31;;;;;;;;;;;;;;;13.60;39.80;99020.34;4382336;32;20554;-61
2021/01/20 09:27:57;;;;;;;;;;;;;;;13.62;39.82;99022.97;4397254;32;19950;-61
2021/01/20 09:30:23;;;;;;;;;;;;;;;13.63;39.79;99016.88;4398549;32;20030;-60
2021/01/20 09:32:49;;;;;;;;;;;;;;;13.65;39.78;99019.53;4385997;32;19962;-62
2021/01/20 09:35:15;;;;;;;;;;;;;;;13.64;39.77;99018.66;4397658;32;19951;-61
2021/01/20 09:37:41;;;;;;;;;;;;;;;13.66;39.74;99016.97;4369457;32;19965;-61
2021/01/20 09:40:08;;;;;;;;;;;;;;;13.65;39.74;99020.44;4381607;32;19963;-61
2021/01/20 09:42:33;;;;;;;;;;;;;;;13.63;39.73;99007.31;4400102;32;20334;-61
2021/01/20 09:44:59;;;;;;;;;;;;;;;13.64;39.73;99013.41;4399989;32;19981;-61
2021/01/20 09:47:25;;;;;;;;;;;;;;;13.66;39.68;99011.72;4385655;32;19987;-61
2021/01/20 09:49:51;;;;;;;;;;;;;;;13.67;39.71;99008.25;4384955;32;19994;-61
2021/01/20 09:52:18;;;;;;;;;;;;;;;13.64;39.76;99002.94;4397527;32;20003;-60
2021/01/20 09:54:44;;;;;;;;;;;;;;;13.67;39.71;99007.38;4386157;32;19954;-61
2021/01/20 09:57:10;;;;;;;;;;;;;;;13.71;39.66;99003.97;4403229;32;20010;-60
2021/01/20 09:59:36;;;;;;;;;;;;;;;13.72;39.60;99006.59;4402544;32;19950;-60
2021/01/20 10:02:01;;;;;;;;;;;;;;;13.73;39.57;99013.59;4402824;32;19935;-61
2021/01/20 10:04:27;;;;;;;;;;;;;;;13.72;39.60;99006.59;4401959;32;20035;-60
2021/01/20 10:06:53;;;;;;;;;;;;;;;13.69;39.71;98996.09;4375291;32;19965;-60
2021/01/20 10:09:20;;;;;;;;;;;;;;;13.72;39.64;98996.13;4371605;32;19982;-61
2021/01/20 10:11:49;;;;;;;;;;;;;;;13.76;39.54;98990.09;4383370;32;20592;-60
2021/01/20 10:14:15;;;;;;;;;;;;;;;13.75;39.54;98980.47;4385798;32;19994;-61
2021/01/20 10:16:41;;;;;;;;;;;;;;;13.81;39.69;98974.47;4380003;32;19951;-61
2021/01/20 10:19:07;;;;;;;;;;;;;;;13.84;39.66;98968.41;4370348;32;20022;-61
2021/01/20 10:21:33;;;;;;;;;;;;;;;13.83;39.98;98961.41;4376499;32;19962;-61
2021/01/20 10:23:59;;;;;;;;;;;;;;;13.80;40.18;98956.16;4386845;32;19989;-61
2021/01/20 10:26:25;;;;;;;;;;;;;;;13.80;40.41;98956.16;4393782;32;19954;-61
2021/01/20 10:28:50;;;;;;;;;;;;;;;13.77;40.41;98956.97;4373247;32;19951;-61
2021/01/20 10:31:16;;;;;;;;;;;;;;;13.76;40.44;98953.44;4384454;32;19990;-61
2021/01/20 10:33:42;;;;;;;;;;;;;;;13.75;40.51;98946.47;4372608;32;19963;-61
2021/01/20 10:36:08;;;;;;;;;;;;;;;13.73;40.49;98945.56;4371257;32;20523;-61
2021/01/20 10:38:34;;;;;;;;;;;;;;;13.72;40.44;98938.56;4386623;32;19951;-61
2021/01/20 10:41:00;;;;;;;;;;;;;;;13.71;40.29;98934.19;4387719;32;19947;-60
2021/01/20 10:43:26;;;;;;;;;;;;;;;13.70;40.20;98929.81;4373497;32;19962;-61
2021/01/20 10:45:52;;;;;;;;;;;;;;;13.69;40.23;98925.44;4384524;32;19955;-61
2021/01/20 10:48:18;;;;;;;;;;;;;;;13.66;40.21;98922.78;4392790;32;19988;-58
2021/01/20 10:50:44;;;;;;;;;;;;;;;13.65;40.21;98918.41;4386579;32;19981;-61
2021/01/20 10:53:10;;;;;;;;;;;;;;;13.64;40.22;98914.00;4379251;32;19959;-58
2021/01/20 10:55:36;;;;;;;;;;;;;;;13.63;40.24;98901.78;4389678;32;20040;-61
2021/01/20 10:58:02;;;;;;;;;;;;;;;13.66;40.18;98898.34;4378888;32;19959;-60
2021/01/20 11:00:28;;;;;;;;;;;;;;;13.65;40.20;98904.44;4369501;32;19959;-60
2021/01/20 11:02:54;;;;;;;;;;;;;;;13.64;40.33;98893.06;4381864;32;19950;-63
2021/01/20 11:05:20;;;;;;;;;;;;;;;13.74;39.56;98897.59;4386406;32;20399;-66
2021/01/20 11:07:46;;;;;;;;;;;;;;;13.35;39.75;98901.28;4387583;32;20016;-69
2021/01/20 11:10:11;;;;;;;;;;;;;;;13.31;40.63;98886.41;4374466;32;19958;-69
2021/01/20 11:12:37;;;;;;;;;;;;;;;13.37;40.32;98881.25;4400304;32;19971;-70
2021/01/20 11:15:03;;;;;;;;;;;;;;;13.47;40.03;98864.91;4396854;32;19954;-69
2021/01/20 11:17:29;;;;;;;;;;;;;;;13.60;39.90;98875.56;4401401;32;19954;-67
2021/01/20 11:19:55;;;;;;;;;;;;;;;13.75;39.63;98860.13;4393502;32;20508;-66
2021/01/20 11:22:21;;;;;;;;;;;;;;;13.79;39.87;98865.41;4389321;32;20318;-69
2021/01/20 11:24:56;;;;;;;;;;;;;;;13.91;39.53;98860.38;4393107;32;19992;-70
2021/01/20 11:27:22;;;;;;;;;;;;;;;13.98;39.53;98864.81;4392240;32;20473;-67
2021/01/20 11:29:48;;;;;;;;;;;;;;;14.05;39.48;98868.41;4400016;32;20013;-65
2021/01/20 11:32:13;;;;;;;;;;;;;;;14.11;39.49;98846.66;4392395;32;19957;-69
2021/01/20 11:34:41;;;;;;;;;;;;;;;14.16;39.47;98840.63;4400658;32;20004;-69
2021/01/20 11:37:07;;;;;;;;;;;;;;;14.24;39.42;98842.50;4399878;32;20379;-70
2021/01/20 11:39:35;;;;;;;;;;;;;;;14.30;39.52;98842.56;4384288;32;19963;-67
2021/01/20 11:42:01;;;;;;;;;;;;;;;14.34;39.58;98833.91;4377439;32;20267;-68
2021/01/20 11:44:27;;;;;;;;;;;;;;;14.42;39.48;98831.38;4370010;32;19943;-69
2021/01/20 11:46:53;;;;;;;;;;;;;;;14.45;39.44;98827.06;4371977;32;19955;-69
2021/01/20 11:49:19;;;;;;;;;;;;;;;14.54;39.30;98820.16;4383682;32;19951;-67
2021/01/20 11:51:45;;;;;;;;;;;;;;;14.59;39.52;98816.72;4385875;32;20332;-70
2021/01/20 11:54:11;;;;;;;;;;;;;;;14.65;39.26;98812.44;4386708;32;19966;-66
2021/01/20 11:56:36;;;;;;;;;;;;;;;14.81;38.99;98798.66;4401965;32;20313;-64
2021/01/20 11:59:02;;;;;;;;;;;;;;;14.92;39.20;98790.00;4400709;32;19965;-68
2021/01/20 12:01:28;;;;;;;;;;;;;;;14.97;39.01;98796.16;4381381;32;19958;-70
2021/01/20 12:03:54;;;;;;;;;;;;;;;14.97;39.00;98793.53;4377428;32;19952;-70
2021/01/20 12:06:20;;;;;;;;;;;;;;;14.99;39.18;98787.47;4371074;32;19959;-67
2021/01/20 12:08:46;;;;;;;;;;;;;;;14.96;39.17;98786.53;4373462;32;20012;-63
2021/01/20 12:11:12;;;;;;;;;;;;;;;14.99;39.19;98781.31;4371241;32;20279;-66
2021/01/20 12:13:38;;;;;;;;;;;;;;;15.02;39.70;98776.13;4371959;32;19974;-64
2021/01/20 12:16:03;;;;;;;;;;;;;;;15.10;39.16;98758.69;4392523;32;19966;-64
2021/01/20 12:18:29;;;;;;;;;;;;;;;15.24;39.12;98757.94;4381461;32;20337;-63
2021/01/20 12:20:55;;;;;;;;;;;;;;;15.41;38.68;98753.72;4374939;32;20028;-60
2021/01/20 12:23:21;;;;;;;;;;;;;;;15.50;38.44;98754.66;4391081;32;19943;-60
2021/01/20 12:25:47;;;;;;;;;;;;;;;15.21;38.62;98750.94;4382893;32;19997;-61
2021/01/20 12:28:13;;;;;;;;;;;;;;;14.79;38.53;98745.34;4379999;32;19950;-59
2021/01/20 12:30:39;;;;;;;;;;;;;;;14.54;38.73;98746.78;4400705;32;20000;-60
2021/01/20 12:33:05;;;;;;;;;;;;;;;14.33;38.92;98738.72;4401724;32;19954;-60
2021/01/20 12:35:31;;;;;;;;;;;;;;;14.23;39.01;98731.62;4401064;32;19947;-61
2021/01/20 12:37:57;;;;;;;;;;;;;;;14.11;39.07;98728.87;4387590;32;19970;-60
2021/01/20 12:40:23;;;;;;;;;;;;;;;14.03;39.15;98724.44;4372021;32;20017;-59